createdAt,value
2019-02-08T00:01:28.952Z,4.29
2019-02-08T00:02:28.857Z,4.28
2019-02-08T00:04:21.662Z,4.36
2019-02-08T00:05:21.549Z,4.36
2019-02-08T00:07:14.314Z,4.34
2019-02-08T00:08:14.228Z,4.36
2019-02-08T00:10:06.999Z,4.34
2019-02-08T00:11:06.911Z,4.42
2019-02-08T00:12:59.705Z,4.28
2019-02-08T00:13:59.633Z,4.35
2019-02-08T00:15:52.423Z,4.39
2019-02-08T00:16:52.324Z,4.44
2019-02-08T00:18:45.118Z,4.43
2019-02-08T00:19:45.026Z,4.39
2019-02-08T00:21:37.796Z,4.32
2019-02-08T00:22:37.707Z,4.43
2019-02-08T00:24:30.498Z,4.32
2019-02-08T00:25:30.394Z,4.32
2019-02-08T00:27:23.147Z,4.32
2019-02-08T00:28:23.074Z,4.34
2019-02-08T00:30:15.854Z,4.32
2019-02-08T00:31:15.767Z,4.34
2019-02-08T00:33:08.545Z,4.31
2019-02-08T00:34:08.455Z,4.36
2019-02-08T00:36:01.237Z,4.50
2019-02-08T00:37:01.153Z,4.50
2019-02-08T00:38:53.926Z,4.46
2019-02-08T00:39:53.844Z,4.46
2019-02-08T00:41:46.622Z,4.43
2019-02-08T00:42:46.575Z,4.39
2019-02-08T00:44:39.303Z,4.46
2019-02-08T00:45:39.232Z,4.43
2019-02-08T00:47:31.975Z,4.43
2019-02-08T00:48:31.904Z,4.35
2019-02-08T00:50:24.670Z,4.44
2019-02-08T00:51:24.583Z,4.44
2019-02-08T00:53:17.356Z,4.35
2019-02-08T00:54:17.282Z,4.39
2019-02-08T00:56:10.093Z,4.42
2019-02-08T00:57:09.993Z,4.34
2019-02-08T00:59:02.742Z,4.24
2019-02-08T01:00:02.676Z,4.32
2019-02-08T01:01:55.458Z,4.25
2019-02-08T01:02:55.374Z,4.24
2019-02-08T01:04:48.137Z,4.20
2019-02-08T01:05:48.053Z,4.10
2019-02-08T01:07:40.850Z,4.07
2019-02-08T01:08:40.753Z,4.10
2019-02-08T01:10:33.522Z,4.10
2019-02-08T01:11:33.433Z,4.11
2019-02-08T01:13:26.181Z,4.14
2019-02-08T01:14:26.118Z,4.16
2019-02-08T01:16:18.899Z,4.25
2019-02-08T01:17:18.818Z,4.17
2019-02-08T01:19:11.608Z,4.13
2019-02-08T01:20:11.549Z,4.11
2019-02-08T01:22:04.309Z,4.10
2019-02-08T01:23:04.218Z,4.08
2019-02-08T01:24:56.989Z,4.06
2019-02-08T01:25:56.910Z,3.99
2019-02-08T01:27:49.669Z,3.96
2019-02-08T01:28:49.600Z,3.96
2019-02-08T01:30:42.361Z,3.86
2019-02-08T01:31:42.280Z,3.90
2019-02-08T01:33:35.052Z,3.82
2019-02-08T01:34:34.978Z,3.88
2019-02-08T01:36:27.743Z,3.86
2019-02-08T01:37:27.663Z,3.90
2019-02-08T01:39:20.427Z,4.00
2019-02-08T01:40:20.357Z,3.98
2019-02-08T01:42:13.122Z,4.11
2019-02-08T01:43:13.039Z,4.14
2019-02-08T01:45:05.825Z,4.18
2019-02-08T01:46:05.742Z,4.25
2019-02-08T01:47:58.506Z,4.32
2019-02-08T01:48:58.433Z,4.31
2019-02-08T01:50:51.205Z,4.42
2019-02-08T01:51:51.117Z,4.47
2019-02-08T01:53:48.519Z,4.46
2019-02-08T01:54:43.846Z,4.44
2019-02-08T01:57:03.335Z,4.49
2019-02-08T01:58:03.266Z,4.51
2019-02-08T01:59:56.022Z,4.50
2019-02-08T02:00:55.941Z,4.50
2019-02-08T02:02:48.745Z,4.59
2019-02-08T02:03:48.624Z,4.62
2019-02-08T02:05:41.425Z,4.57
2019-02-08T02:06:41.340Z,4.62
2019-02-08T02:08:34.103Z,4.54
2019-02-08T02:09:34.023Z,4.51
2019-02-08T02:11:26.826Z,4.49
2019-02-08T02:12:26.739Z,4.49
2019-02-08T02:14:19.531Z,4.32
2019-02-08T02:15:19.457Z,4.31
2019-02-08T02:17:12.235Z,4.29
2019-02-08T02:18:12.143Z,4.32
2019-02-08T02:20:04.938Z,4.20
2019-02-08T02:21:04.829Z,4.16
2019-02-08T02:22:57.596Z,4.17
2019-02-08T02:23:57.519Z,4.11
2019-02-08T02:25:50.484Z,4.07
2019-02-08T02:26:50.389Z,4.06
2019-02-08T02:28:43.142Z,4.08
2019-02-08T02:29:43.072Z,4.13
2019-02-08T02:31:35.834Z,4.10
2019-02-08T02:32:35.753Z,4.06
2019-02-08T02:34:28.511Z,3.95
2019-02-08T02:35:28.445Z,3.93
2019-02-08T02:37:21.204Z,3.95
2019-02-08T02:38:21.121Z,3.84
2019-02-08T02:40:13.903Z,3.84
2019-02-08T02:41:13.807Z,3.88
2019-02-08T02:43:06.551Z,3.84
2019-02-08T02:44:06.482Z,3.90
2019-02-08T02:45:59.251Z,3.84
2019-02-08T02:46:59.162Z,3.77
2019-02-08T02:48:51.925Z,3.84
2019-02-08T02:49:51.877Z,3.89
2019-02-08T02:51:44.643Z,3.86
2019-02-08T02:52:44.544Z,3.81
2019-02-08T02:54:37.312Z,3.81
2019-02-08T02:55:37.236Z,3.78
2019-02-08T02:57:29.998Z,3.82
2019-02-08T02:58:29.912Z,3.82
2019-02-08T03:00:22.694Z,3.82
2019-02-08T03:01:22.611Z,3.86
2019-02-08T03:03:15.382Z,3.78
2019-02-08T03:04:15.295Z,3.84
2019-02-08T03:06:08.067Z,3.77
2019-02-08T03:07:07.981Z,3.80
2019-02-08T03:09:00.742Z,3.81
2019-02-08T03:10:00.657Z,3.89
2019-02-08T03:11:53.441Z,3.74
2019-02-08T03:12:53.349Z,3.77
2019-02-08T03:14:46.126Z,3.78
2019-02-08T03:15:46.051Z,3.77
2019-02-08T03:17:38.838Z,3.75
2019-02-08T03:18:38.752Z,3.78
2019-02-08T03:20:31.514Z,3.74
2019-02-08T03:21:31.444Z,3.63
2019-02-08T03:23:24.213Z,3.77
2019-02-08T03:24:24.121Z,3.86
2019-02-08T03:26:16.901Z,3.74
2019-02-08T03:27:16.808Z,3.72
2019-02-08T03:29:09.583Z,3.80
2019-02-08T03:30:09.566Z,3.59
2019-02-08T03:32:02.274Z,3.68
2019-02-08T03:33:02.202Z,3.67
2019-02-08T03:34:54.968Z,3.74
2019-02-08T03:35:54.892Z,3.70
2019-02-08T03:37:47.670Z,3.78
2019-02-08T03:38:47.586Z,3.71
2019-02-08T03:40:40.343Z,3.78
2019-02-08T03:41:40.268Z,3.68
2019-02-08T03:43:33.057Z,3.75
2019-02-08T03:44:32.966Z,3.77
2019-02-08T03:46:25.741Z,3.77
2019-02-08T03:47:25.650Z,3.77
2019-02-08T03:49:18.418Z,3.74
2019-02-08T03:50:18.389Z,3.80
2019-02-08T03:52:11.098Z,3.80
2019-02-08T03:53:11.049Z,3.63
2019-02-08T03:55:03.817Z,3.77
2019-02-08T03:56:03.743Z,3.74
2019-02-08T03:57:56.511Z,3.75
2019-02-08T03:58:56.429Z,3.64
2019-02-08T04:00:49.194Z,3.80
2019-02-08T04:01:49.116Z,3.75
2019-02-08T04:03:41.887Z,3.80
2019-02-08T04:04:41.799Z,3.82
2019-02-08T04:06:34.566Z,3.80
2019-02-08T04:07:34.480Z,3.81
2019-02-08T04:09:27.254Z,3.78
2019-02-08T04:10:27.179Z,3.84
2019-02-08T04:12:19.956Z,3.88
2019-02-08T04:13:19.869Z,3.82
2019-02-08T04:15:12.637Z,3.78
2019-02-08T04:16:12.555Z,3.75
2019-02-08T04:18:05.377Z,3.80
2019-02-08T04:19:05.243Z,3.77
2019-02-08T04:20:58.007Z,3.86
2019-02-08T04:21:57.919Z,3.86
2019-02-08T04:23:50.685Z,3.99
2019-02-08T04:24:50.596Z,3.95
2019-02-08T04:26:43.371Z,3.90
2019-02-08T04:27:43.277Z,3.90
2019-02-08T04:29:36.065Z,3.86
2019-02-08T04:30:35.989Z,3.86
2019-02-08T04:32:28.778Z,3.86
2019-02-08T04:33:28.686Z,3.86
2019-02-08T04:35:21.475Z,3.92
2019-02-08T04:36:21.386Z,3.90
2019-02-08T04:38:14.160Z,4.00
2019-02-08T04:39:14.071Z,3.95
2019-02-08T04:41:06.832Z,3.98
2019-02-08T04:42:06.770Z,4.02
2019-02-08T04:43:59.530Z,4.04
2019-02-08T04:44:59.438Z,4.08
2019-02-08T04:46:52.206Z,4.07
2019-02-08T04:47:52.118Z,4.08
2019-02-08T04:49:44.867Z,4.11
2019-02-08T04:50:44.801Z,4.06
2019-02-08T04:52:37.570Z,4.04
2019-02-08T04:53:37.481Z,4.04
2019-02-08T04:55:30.240Z,4.07
2019-02-08T04:56:30.164Z,4.08
2019-02-08T04:58:22.958Z,4.02
2019-02-08T04:59:22.862Z,4.11
2019-02-08T05:01:15.633Z,4.08
2019-02-08T05:02:15.555Z,4.06
2019-02-08T05:04:08.320Z,4.07
2019-02-08T05:05:08.242Z,4.04
2019-02-08T05:07:00.998Z,4.07
2019-02-08T05:08:00.910Z,4.00
2019-02-08T05:09:53.680Z,4.04
2019-02-08T05:10:53.610Z,4.10
2019-02-08T05:12:46.385Z,4.08
2019-02-08T05:13:46.291Z,4.06
2019-02-08T05:15:39.044Z,4.07
2019-02-08T05:16:38.968Z,3.99
2019-02-08T05:18:31.737Z,4.08
2019-02-08T05:19:31.655Z,4.11
2019-02-08T05:21:24.426Z,4.08
2019-02-08T05:22:24.350Z,4.10
2019-02-08T05:24:17.125Z,4.11
2019-02-08T05:25:17.040Z,4.04
2019-02-08T05:27:09.798Z,4.00
2019-02-08T05:28:09.717Z,4.02
2019-02-08T05:30:02.481Z,4.00
2019-02-08T05:31:02.400Z,4.00
2019-02-08T05:32:55.177Z,4.04
2019-02-08T05:33:55.091Z,4.08
2019-02-08T05:35:47.845Z,4.11
2019-02-08T05:36:47.772Z,4.04
2019-02-08T05:38:40.539Z,3.92
2019-02-08T05:39:40.459Z,3.89
2019-02-08T05:41:33.218Z,3.92
2019-02-08T05:42:33.151Z,3.92
2019-02-08T05:44:25.918Z,3.95
2019-02-08T05:45:25.830Z,3.92
2019-02-08T05:47:18.596Z,3.95
2019-02-08T05:48:18.511Z,3.93
2019-02-08T05:50:11.265Z,3.99
2019-02-08T05:51:11.198Z,3.98
2019-02-08T05:53:03.973Z,3.88
2019-02-08T05:54:03.899Z,3.81
2019-02-08T05:55:56.653Z,3.88
2019-02-08T05:56:56.582Z,3.89
2019-02-08T05:58:49.343Z,3.92
2019-02-08T05:59:49.266Z,3.84
2019-02-08T06:01:42.022Z,3.92
2019-02-08T06:02:42.108Z,3.95
2019-02-08T06:04:34.735Z,3.89
2019-02-08T06:05:34.663Z,3.86
2019-02-08T06:07:27.422Z,3.89
2019-02-08T06:08:27.336Z,3.93
2019-02-08T06:10:20.108Z,3.80
2019-02-08T06:11:20.027Z,3.82
2019-02-08T06:13:12.798Z,3.90
2019-02-08T06:14:12.721Z,3.86
2019-02-08T06:16:05.467Z,3.92
2019-02-08T06:17:05.391Z,3.88
2019-02-08T06:18:58.157Z,3.86
2019-02-08T06:19:58.081Z,3.89
2019-02-08T06:21:50.842Z,3.89
2019-02-08T06:22:50.765Z,3.84
2019-02-08T06:24:43.541Z,3.82
2019-02-08T06:25:43.464Z,3.88
2019-02-08T06:27:36.251Z,3.93
2019-02-08T06:28:36.162Z,3.98
2019-02-08T06:30:28.946Z,3.95
2019-02-08T06:31:28.876Z,3.96
2019-02-08T06:33:21.679Z,3.96
2019-02-08T06:34:21.582Z,3.99
2019-02-08T06:36:14.343Z,3.96
2019-02-08T06:37:14.266Z,3.93
2019-02-08T06:39:07.038Z,4.04
2019-02-08T06:40:06.945Z,4.07
2019-02-08T06:41:59.701Z,4.07
2019-02-08T06:42:59.627Z,4.04
2019-02-08T06:44:52.393Z,4.08
2019-02-08T06:45:52.310Z,4.07
2019-02-08T06:47:45.097Z,4.08
2019-02-08T06:48:45.005Z,4.04
2019-02-08T06:50:37.764Z,4.08
2019-02-08T06:51:37.687Z,4.07
2019-02-08T06:53:30.476Z,4.11
2019-02-08T06:54:30.388Z,4.07
2019-02-08T06:56:23.163Z,4.07
2019-02-08T06:57:23.110Z,4.06
2019-02-08T06:59:15.856Z,4.06
2019-02-08T07:00:15.776Z,4.08
2019-02-08T07:02:08.534Z,4.11
2019-02-08T07:03:08.469Z,4.07
2019-02-08T07:05:01.254Z,4.13
2019-02-08T07:06:01.168Z,4.20
2019-02-08T07:07:53.984Z,4.18
2019-02-08T07:08:53.882Z,4.13
2019-02-08T07:10:46.647Z,4.21
2019-02-08T07:11:46.566Z,4.18
2019-02-08T07:13:39.337Z,4.20
2019-02-08T07:14:39.250Z,4.25
2019-02-08T07:16:32.003Z,4.18
2019-02-08T07:17:31.931Z,4.17
2019-02-08T07:19:24.808Z,4.18
2019-02-08T07:20:24.722Z,4.28
2019-02-08T07:22:17.501Z,4.18
2019-02-08T07:23:17.701Z,4.21
2019-02-08T07:25:10.162Z,4.20
2019-02-08T07:26:10.070Z,4.29
2019-02-08T07:28:02.827Z,4.24
2019-02-08T07:29:02.763Z,4.28
2019-02-08T07:30:55.593Z,4.34
2019-02-08T07:31:55.502Z,4.32
2019-02-08T07:33:48.272Z,4.43
2019-02-08T07:34:48.191Z,4.34
2019-02-08T07:36:40.942Z,4.39
2019-02-08T07:37:40.865Z,4.43
2019-02-08T07:39:33.630Z,4.49
2019-02-08T07:40:33.556Z,4.51
2019-02-08T07:42:26.363Z,4.61
2019-02-08T07:43:26.291Z,4.71
2019-02-08T07:45:19.129Z,4.83
2019-02-08T07:46:19.039Z,4.83
2019-02-08T07:48:11.809Z,5.04
2019-02-08T07:49:11.745Z,5.09
2019-02-08T07:51:04.500Z,5.20
2019-02-08T07:52:04.419Z,5.23
2019-02-08T07:53:57.217Z,5.30
2019-02-08T07:54:57.133Z,5.40
2019-02-08T07:56:49.872Z,5.42
2019-02-08T07:57:49.801Z,5.37
2019-02-08T07:59:42.569Z,5.56
2019-02-08T08:00:42.491Z,5.51
2019-02-08T08:02:35.244Z,5.62
2019-02-08T08:03:35.169Z,5.73
2019-02-08T08:05:27.961Z,5.70
2019-02-08T08:06:27.872Z,5.78
2019-02-08T08:08:20.631Z,5.95
2019-02-08T08:09:20.551Z,5.93
2019-02-08T08:11:13.353Z,5.98
2019-02-08T08:12:13.262Z,5.90
2019-02-08T08:14:06.030Z,5.70
2019-02-08T08:15:05.944Z,5.75
2019-02-08T08:16:58.714Z,5.80
2019-02-08T08:17:58.631Z,5.98
2019-02-08T08:19:51.405Z,6.53
2019-02-08T08:20:51.336Z,6.51
2019-02-08T08:22:44.092Z,6.55
2019-02-08T08:23:44.074Z,6.63
2019-02-08T08:25:36.784Z,6.72
2019-02-08T08:26:36.716Z,6.69
2019-02-08T08:28:29.502Z,6.63
2019-02-08T08:29:29.458Z,6.64
2019-02-08T08:31:22.198Z,6.57
2019-02-08T08:32:22.121Z,6.57
2019-02-08T08:34:14.943Z,6.68
2019-02-08T08:35:14.863Z,6.75
2019-02-08T08:37:07.625Z,6.73
2019-02-08T08:38:07.538Z,6.73
2019-02-08T08:40:00.335Z,6.64
2019-02-08T08:41:00.259Z,6.58
2019-02-08T08:43:17.573Z,6.78
2019-02-08T08:44:17.496Z,7.11
2019-02-08T08:46:10.287Z,7.12
2019-02-08T08:47:10.215Z,7.24
2019-02-08T08:49:02.973Z,7.29
2019-02-08T08:50:02.924Z,7.16
2019-02-08T08:51:55.707Z,7.11
2019-02-08T08:52:55.628Z,7.16
2019-02-08T08:54:48.419Z,8.27
2019-02-08T08:55:48.342Z,8.76
2019-02-08T08:57:41.108Z,9.78
2019-02-08T08:58:41.061Z,10.18
2019-02-08T09:00:33.825Z,10.54
2019-02-08T09:01:33.744Z,10.62
2019-02-08T09:03:26.513Z,10.32
2019-02-08T09:04:26.480Z,10.54
2019-02-08T09:06:19.216Z,9.67
2019-02-08T09:07:19.157Z,9.08
2019-02-08T09:09:11.928Z,8.64
2019-02-08T09:10:13.135Z,8.50
2019-02-08T09:12:04.652Z,8.28
2019-02-08T09:13:04.658Z,8.27
2019-02-08T09:14:57.401Z,8.17
2019-02-08T09:15:57.276Z,8.34
2019-02-08T09:17:50.120Z,8.86
2019-02-08T09:18:50.024Z,9.17
2019-02-08T09:20:42.826Z,9.65
2019-02-08T09:21:42.715Z,10.31
2019-02-08T09:23:35.514Z,11.33
2019-02-08T09:24:35.436Z,11.84
2019-02-08T09:26:28.330Z,12.15
2019-02-08T09:27:28.153Z,11.57
2019-02-08T09:29:21.220Z,10.63
2019-02-08T09:30:21.167Z,11.20
2019-02-08T09:32:14.004Z,11.85
2019-02-08T09:33:13.930Z,12.08
2019-02-08T09:35:06.732Z,12.19
2019-02-08T09:36:06.650Z,12.31
2019-02-08T09:37:59.475Z,12.62
2019-02-08T09:38:59.375Z,13.06
2019-02-08T09:40:52.144Z,13.57
2019-02-08T09:41:52.100Z,12.95
2019-02-08T09:43:44.891Z,13.50
2019-02-08T09:44:44.865Z,13.46
2019-02-08T09:46:37.575Z,13.86
2019-02-08T09:47:37.543Z,14.20
2019-02-08T09:49:30.366Z,13.91
2019-02-08T09:50:30.283Z,14.04
2019-02-08T09:52:23.076Z,14.75
2019-02-08T09:53:22.994Z,14.60
2019-02-08T09:55:15.849Z,14.20
2019-02-08T09:56:15.722Z,14.05
2019-02-08T09:58:08.520Z,13.84
2019-02-08T09:59:08.442Z,14.06
2019-02-08T10:01:01.281Z,13.63
2019-02-08T10:02:01.170Z,13.48
2019-02-08T10:03:54.094Z,14.16
2019-02-08T10:04:54.014Z,14.48
2019-02-08T10:06:46.824Z,14.63
2019-02-08T10:07:46.746Z,15.00
2019-02-08T10:09:39.547Z,14.72
2019-02-08T10:10:39.523Z,14.74
2019-02-08T10:12:32.277Z,15.00
2019-02-08T10:13:32.221Z,14.64
2019-02-08T10:15:25.097Z,14.52
2019-02-08T10:16:24.930Z,14.64
2019-02-08T10:18:18.014Z,14.54
2019-02-08T10:19:17.809Z,14.71
2019-02-08T10:21:10.627Z,14.80
2019-02-08T10:22:10.551Z,14.41
2019-02-08T10:24:03.461Z,14.16
2019-02-08T10:25:03.392Z,14.13
2019-02-08T10:26:56.328Z,14.16
2019-02-08T10:27:56.266Z,14.06
2019-02-08T10:29:49.242Z,14.12
2019-02-08T10:30:49.135Z,14.09
2019-02-08T10:32:42.070Z,13.96
2019-02-08T10:33:42.005Z,13.68
2019-02-08T10:35:34.935Z,13.48
2019-02-08T10:36:34.846Z,13.04
2019-02-08T10:38:27.625Z,12.49
2019-02-08T10:39:27.590Z,12.08
2019-02-08T10:41:20.408Z,11.38
2019-02-08T10:42:20.307Z,11.12
2019-02-08T10:44:13.113Z,10.70
2019-02-08T10:45:13.060Z,10.44
2019-02-08T10:47:05.868Z,10.29
2019-02-08T10:48:05.802Z,10.35
2019-02-08T10:49:58.616Z,10.18
2019-02-08T10:50:58.530Z,10.26
2019-02-08T10:52:51.319Z,10.39
2019-02-08T10:53:53.150Z,10.25
2019-02-08T10:55:44.045Z,9.99
2019-02-08T10:56:43.978Z,10.10
2019-02-08T10:58:36.747Z,10.26
2019-02-08T10:59:36.754Z,10.25
2019-02-08T11:01:29.466Z,10.26
2019-02-08T11:02:29.376Z,10.31
2019-02-08T11:04:22.215Z,10.42
2019-02-08T11:05:22.139Z,10.31
2019-02-08T11:07:14.965Z,10.36
2019-02-08T11:08:14.897Z,10.28
2019-02-08T11:10:07.677Z,10.11
2019-02-08T11:11:07.603Z,9.98
2019-02-08T11:13:00.393Z,9.92
2019-02-08T11:14:00.289Z,9.83
2019-02-08T11:15:53.088Z,10.01
2019-02-08T11:16:53.004Z,9.89
2019-02-08T11:18:45.796Z,9.88
2019-02-08T11:19:45.719Z,9.86
2019-02-08T11:21:38.499Z,9.92
2019-02-08T11:22:38.426Z,9.80
2019-02-08T11:24:31.284Z,9.81
2019-02-08T11:25:31.170Z,9.83
2019-02-08T11:27:24.003Z,9.80
2019-02-08T11:28:23.917Z,9.80
2019-02-08T11:30:16.789Z,9.73
2019-02-08T11:31:16.686Z,9.73
2019-02-08T11:33:09.519Z,9.65
2019-02-08T11:34:09.449Z,9.86
2019-02-08T11:36:02.354Z,9.98
2019-02-08T11:37:02.266Z,10.22
2019-02-08T11:38:55.009Z,10.14
2019-02-08T11:39:54.937Z,10.09
2019-02-08T11:41:47.766Z,9.96
2019-02-08T11:42:47.642Z,9.86
2019-02-08T11:44:40.453Z,9.75
2019-02-08T11:45:40.348Z,9.81
2019-02-08T11:47:33.158Z,9.81
2019-02-08T11:48:33.087Z,9.83
2019-02-08T11:50:25.881Z,9.89
2019-02-08T11:51:25.808Z,9.85
2019-02-08T11:53:18.556Z,9.74
2019-02-08T11:54:18.497Z,9.78
2019-02-08T11:56:11.301Z,9.78
2019-02-08T11:57:11.219Z,9.78
2019-02-08T11:59:04.012Z,9.78
2019-02-08T12:00:03.973Z,9.73
2019-02-08T12:01:56.757Z,9.83
2019-02-08T12:02:56.663Z,9.81
2019-02-08T12:04:49.428Z,9.99
2019-02-08T12:05:49.354Z,10.16
2019-02-08T12:07:42.160Z,10.26
2019-02-08T12:08:42.086Z,10.32
2019-02-08T12:10:34.949Z,10.34
2019-02-08T12:11:34.812Z,10.34
2019-02-08T12:13:27.602Z,10.29
2019-02-08T12:14:27.523Z,10.31
2019-02-08T12:16:20.368Z,10.24
2019-02-08T12:17:20.262Z,10.17
2019-02-08T12:19:13.078Z,10.09
2019-02-08T12:20:12.992Z,10.06
2019-02-08T12:22:05.765Z,9.96
2019-02-08T12:23:05.689Z,9.96
2019-02-08T12:24:58.454Z,9.92
2019-02-08T12:25:58.385Z,10.02
2019-02-08T12:27:51.191Z,9.99
2019-02-08T12:28:51.112Z,10.02
2019-02-08T12:30:43.936Z,10.22
2019-02-08T12:31:43.924Z,10.22
2019-02-08T12:33:36.702Z,10.18
2019-02-08T12:34:36.630Z,10.14
2019-02-08T12:36:29.512Z,10.26
2019-02-08T12:37:29.417Z,10.20
2019-02-08T12:39:22.231Z,10.13
2019-02-08T12:40:22.123Z,10.16
2019-02-08T12:42:14.945Z,10.14
2019-02-08T12:43:14.860Z,10.06
2019-02-08T12:45:07.682Z,9.96
2019-02-08T12:46:07.596Z,9.96
2019-02-08T12:48:00.442Z,10.04
2019-02-08T12:49:00.387Z,10.06
2019-02-08T12:50:53.175Z,9.96
2019-02-08T12:51:53.085Z,10.07
2019-02-08T12:53:45.935Z,10.14
2019-02-08T12:54:45.862Z,10.11
2019-02-08T12:56:45.479Z,10.09
2019-02-08T12:57:38.542Z,10.01
2019-02-08T12:59:31.424Z,9.95
2019-02-08T13:00:31.303Z,9.99
2019-02-08T13:02:24.285Z,9.86
2019-02-08T13:03:24.220Z,9.89
2019-02-08T13:05:17.044Z,9.86
2019-02-08T13:06:16.973Z,9.77
2019-02-08T13:08:09.854Z,9.81
2019-02-08T13:09:09.771Z,9.80
2019-02-08T13:11:02.656Z,9.89
2019-02-08T13:12:02.509Z,9.77
2019-02-08T13:13:55.320Z,9.77
2019-02-08T13:14:55.249Z,9.81
2019-02-08T13:16:48.088Z,9.78
2019-02-08T13:17:48.031Z,9.85
2019-02-08T13:19:40.737Z,9.65
2019-02-08T13:20:40.665Z,9.80
2019-02-08T13:22:33.467Z,9.80
2019-02-08T13:23:33.382Z,9.78
2019-02-08T13:25:26.231Z,9.88
2019-02-08T13:26:26.134Z,9.95
2019-02-08T13:28:18.930Z,9.99
2019-02-08T13:29:18.860Z,9.92
2019-02-08T13:31:11.631Z,9.96
2019-02-08T13:32:11.560Z,9.98
2019-02-08T13:34:04.353Z,9.99
2019-02-08T13:35:04.327Z,9.99
2019-02-08T13:36:57.087Z,9.93
2019-02-08T13:37:56.980Z,9.98
2019-02-08T13:39:49.819Z,10.01
2019-02-08T13:40:49.736Z,10.07
2019-02-08T13:42:42.525Z,9.99
2019-02-08T13:43:42.455Z,9.86
2019-02-08T13:45:35.412Z,9.99
2019-02-08T13:46:35.266Z,10.06
2019-02-08T13:48:28.082Z,10.16
2019-02-08T13:49:27.990Z,10.11
2019-02-08T13:51:20.768Z,10.20
2019-02-08T13:52:20.726Z,10.17
2019-02-08T13:54:13.490Z,10.06
2019-02-08T13:55:13.402Z,10.06
2019-02-08T13:57:06.193Z,10.11
2019-02-08T13:58:06.302Z,10.17
2019-02-08T13:59:58.989Z,9.99
2019-02-08T14:00:58.887Z,9.96
2019-02-08T14:02:51.647Z,9.91
2019-02-08T14:03:51.569Z,9.86
2019-02-08T14:05:44.367Z,9.62
2019-02-08T14:06:44.300Z,9.70
2019-02-08T14:08:37.055Z,9.74
2019-02-08T14:09:36.978Z,9.74
2019-02-08T14:11:29.879Z,9.70
2019-02-08T14:12:29.818Z,9.77
2019-02-08T14:14:22.596Z,9.73
2019-02-08T14:15:22.460Z,9.73
2019-02-08T14:17:15.381Z,9.74
2019-02-08T14:18:15.238Z,9.71
2019-02-08T14:20:08.042Z,9.71
2019-02-08T14:21:07.993Z,9.68
2019-02-08T14:23:00.801Z,9.68
2019-02-08T14:24:00.717Z,9.71
2019-02-08T14:25:53.595Z,9.67
2019-02-08T14:26:53.551Z,9.68
2019-02-08T14:28:46.263Z,9.74
2019-02-08T14:29:46.185Z,9.58
2019-02-08T14:31:39.040Z,9.56
2019-02-08T14:32:38.971Z,9.62
2019-02-08T14:34:31.826Z,9.60
2019-02-08T14:35:31.791Z,9.70
2019-02-08T14:37:24.581Z,9.62
2019-02-08T14:38:24.535Z,9.73
2019-02-08T14:40:17.437Z,9.70
2019-02-08T14:41:17.262Z,9.68
2019-02-08T14:43:10.197Z,9.71
2019-02-08T14:44:10.102Z,9.67
2019-02-08T14:46:02.860Z,9.73
2019-02-08T14:47:02.763Z,9.75
2019-02-08T14:48:57.520Z,9.73
2019-02-08T14:49:55.494Z,9.63
2019-02-08T14:51:48.411Z,9.73
2019-02-08T14:52:48.203Z,9.58
2019-02-08T14:54:40.998Z,9.53
2019-02-08T14:55:40.924Z,9.60
2019-02-08T14:57:33.761Z,9.52
2019-02-08T14:58:33.658Z,9.53
2019-02-08T15:00:26.483Z,9.44
2019-02-08T15:01:26.423Z,9.37
2019-02-08T15:03:19.471Z,9.30
2019-02-08T15:04:19.119Z,9.41
2019-02-08T15:06:11.918Z,9.41
2019-02-08T15:07:11.832Z,9.40
2019-02-08T15:09:04.580Z,9.38
2019-02-08T15:10:04.530Z,9.32
2019-02-08T15:11:57.384Z,9.41
2019-02-08T15:12:57.317Z,9.38
2019-02-08T15:14:50.152Z,9.44
2019-02-08T15:15:50.037Z,9.37
2019-02-08T15:17:42.854Z,9.40
2019-02-08T15:18:42.721Z,9.42
2019-02-08T15:20:35.530Z,9.41
2019-02-08T15:21:35.434Z,9.40
2019-02-08T15:23:28.198Z,9.35
2019-02-08T15:24:28.138Z,9.34
2019-02-08T15:26:20.910Z,9.37
2019-02-08T15:27:24.254Z,9.31
2019-02-08T15:29:13.629Z,9.27
2019-02-08T15:30:13.529Z,9.24
2019-02-08T15:32:06.381Z,9.31
2019-02-08T15:33:06.272Z,9.26
2019-02-08T15:34:59.050Z,9.31
2019-02-08T15:35:59.020Z,9.31
2019-02-08T15:37:51.742Z,9.35
2019-02-08T15:38:51.675Z,9.34
2019-02-08T15:40:44.714Z,9.38
2019-02-08T15:41:44.385Z,9.32
2019-02-08T15:43:37.242Z,9.34
2019-02-08T15:44:37.129Z,9.22
2019-02-08T15:46:29.931Z,9.16
2019-02-08T15:47:29.847Z,9.15
2019-02-08T15:49:22.619Z,9.22
2019-02-08T15:50:22.540Z,9.15
2019-02-08T15:52:15.305Z,9.22
2019-02-08T15:53:15.237Z,9.20
2019-02-08T15:55:08.123Z,9.16
2019-02-08T15:56:08.006Z,9.19
2019-02-08T15:58:00.796Z,9.01
2019-02-08T15:59:00.691Z,9.01
2019-02-08T16:00:53.565Z,8.88
2019-02-08T16:01:53.464Z,8.93
2019-02-08T16:03:46.228Z,8.97
2019-02-08T16:04:46.152Z,8.93
2019-02-08T16:06:39.045Z,8.93
2019-02-08T16:07:38.927Z,8.96
2019-02-08T16:09:31.716Z,8.96
2019-02-08T16:10:31.644Z,8.94
2019-02-08T16:12:24.450Z,8.97
2019-02-08T16:13:24.376Z,8.93
2019-02-08T16:15:17.174Z,8.88
2019-02-08T16:16:17.085Z,8.86
2019-02-08T16:18:09.951Z,8.89
2019-02-08T16:19:09.810Z,8.98
2019-02-08T16:21:02.592Z,8.91
2019-02-08T16:22:02.522Z,8.93
2019-02-08T16:23:55.280Z,8.94
2019-02-08T16:24:55.216Z,8.89
2019-02-08T16:26:47.989Z,8.93
2019-02-08T16:27:47.902Z,8.93
2019-02-08T16:29:40.665Z,8.98
2019-02-08T16:30:40.626Z,8.88
2019-02-08T16:32:33.359Z,8.97
2019-02-08T16:33:33.299Z,8.93
2019-02-08T16:35:26.036Z,8.97
2019-02-08T16:36:25.963Z,8.89
2019-02-08T16:38:18.857Z,8.94
2019-02-08T16:39:18.748Z,8.94
2019-02-08T16:41:11.520Z,8.96
2019-02-08T16:42:11.441Z,8.93
2019-02-08T16:44:04.208Z,8.94
2019-02-08T16:45:04.288Z,8.94
2019-02-08T16:46:56.966Z,8.98
2019-02-08T16:47:56.855Z,8.98
2019-02-08T16:49:49.606Z,8.96
2019-02-08T16:50:49.535Z,9.08
2019-02-08T16:52:42.303Z,8.97
2019-02-08T16:53:42.229Z,8.96
2019-02-08T16:55:35.315Z,8.89
2019-02-08T16:56:35.227Z,8.97
2019-02-08T16:58:28.041Z,8.89
2019-02-08T16:59:27.957Z,8.86
2019-02-08T17:01:20.788Z,8.94
2019-02-08T17:02:20.681Z,8.94
2019-02-08T17:04:13.466Z,8.97
2019-02-08T17:05:13.400Z,8.96
2019-02-08T17:07:06.199Z,8.89
2019-02-08T17:08:06.109Z,8.93
2019-02-08T17:09:58.902Z,8.86
2019-02-08T17:10:58.833Z,8.88
2019-02-08T17:12:51.611Z,8.91
2019-02-08T17:13:51.526Z,8.91
2019-02-08T17:15:44.279Z,8.88
2019-02-08T17:16:44.205Z,8.93
2019-02-08T17:18:36.967Z,8.89
2019-02-08T17:19:36.896Z,8.93
2019-02-08T17:21:29.667Z,8.85
2019-02-08T17:22:29.633Z,8.86
2019-02-08T17:24:22.391Z,8.89
2019-02-08T17:25:22.303Z,8.86
2019-02-08T17:27:15.088Z,8.89
2019-02-08T17:28:15.008Z,8.83
2019-02-08T17:30:07.769Z,8.83
2019-02-08T17:31:07.709Z,8.83
2019-02-08T17:33:00.457Z,8.86
2019-02-08T17:34:00.379Z,8.89
2019-02-08T17:35:53.162Z,8.85
2019-02-08T17:36:53.078Z,8.89
2019-02-08T17:38:45.873Z,8.85
2019-02-08T17:39:45.778Z,8.83
2019-02-08T17:41:38.547Z,8.88
2019-02-08T17:42:38.475Z,8.86
2019-02-08T17:44:31.254Z,8.83
2019-02-08T17:45:31.214Z,8.76
2019-02-08T17:47:23.989Z,8.80
2019-02-08T17:48:23.889Z,8.70
2019-02-08T17:50:16.712Z,8.76
2019-02-08T17:51:16.644Z,8.80
2019-02-08T17:53:09.409Z,8.82
2019-02-08T17:54:09.324Z,8.83
2019-02-08T17:56:02.122Z,8.83
2019-02-08T17:57:02.059Z,8.80
2019-02-08T17:58:54.826Z,8.75
2019-02-08T17:59:54.754Z,8.76
2019-02-08T18:01:47.511Z,8.76
2019-02-08T18:02:47.443Z,8.75
2019-02-08T18:04:40.237Z,8.82
2019-02-08T18:05:40.158Z,8.78
2019-02-08T18:07:32.925Z,8.65
2019-02-08T18:08:32.836Z,8.68
2019-02-08T18:10:25.647Z,8.68
2019-02-08T18:11:25.587Z,8.71
2019-02-08T18:13:18.389Z,8.63
2019-02-08T18:14:18.275Z,8.70
2019-02-08T18:16:11.072Z,8.71
2019-02-08T18:17:11.033Z,8.71
2019-02-08T18:19:03.826Z,8.71
2019-02-08T18:20:03.691Z,8.67
2019-02-08T18:21:56.513Z,8.61
2019-02-08T18:22:56.441Z,8.61
2019-02-08T18:24:49.222Z,8.67
2019-02-08T18:25:49.135Z,8.64
2019-02-08T18:27:41.921Z,8.57
2019-02-08T18:28:41.895Z,8.65
2019-02-08T18:30:34.616Z,8.58
2019-02-08T18:31:34.609Z,8.52
2019-02-08T18:33:27.356Z,8.61
2019-02-08T18:34:27.233Z,8.65
2019-02-08T18:36:20.038Z,8.60
2019-02-08T18:37:19.952Z,8.58
2019-02-08T18:39:12.895Z,8.50
2019-02-08T18:40:12.654Z,8.52
2019-02-08T18:42:05.425Z,8.49
2019-02-08T18:43:05.425Z,8.40
2019-02-08T18:44:58.196Z,8.43
2019-02-08T18:45:58.067Z,8.34
2019-02-08T18:47:50.922Z,8.28
2019-02-08T18:48:50.810Z,8.27
2019-02-08T18:50:43.566Z,8.22
2019-02-08T18:51:43.486Z,8.24
2019-02-08T18:53:36.258Z,8.17
2019-02-08T18:54:36.197Z,8.10
2019-02-08T18:56:29.220Z,8.04
2019-02-08T18:57:28.943Z,8.03
2019-02-08T18:59:21.773Z,8.12
2019-02-08T19:00:21.695Z,7.99
2019-02-08T19:02:14.488Z,7.96
2019-02-08T19:03:14.418Z,8.03
2019-02-08T19:05:07.190Z,8.03